sensor_id;sensor_type;location;lat;lon;timestamp;pressure;altitude;pressure_sealevel;temperature;humidity
80853;BME280;70270;43.434;28.338;2023-12-04T00:00:09;100681.50;;;7.99;66.96
80853;BME280;70270;43.434;28.338;2023-12-04T00:02:57;100589.84;;;7.59;66.74
80853;BME280;70270;43.434;28.338;2023-12-04T00:05:42;100695.34;;;8.04;66.90
80853;BME280;70270;43.434;28.338;2023-12-04T00:08:28;100714.56;;;8.09;66.64
80853;BME280;70270;43.434;28.338;2023-12-04T00:14:39;100707.13;;;8.11;65.79
80853;BME280;70270;43.434;28.338;2023-12-04T00:17:43;100696.03;;;7.98;65.55
80853;BME280;70270;43.434;28.338;2023-12-04T00:20:35;100724.88;;;7.89;65.56
80853;BME280;70270;43.434;28.338;2023-12-04T00:23:21;100720.84;;;7.85;64.82
80853;BME280;70270;43.434;28.338;2023-12-04T00:26:23;100706.50;;;7.85;65.45
80853;BME280;70270;43.434;28.338;2023-12-04T00:29:08;100709.53;;;7.74;65.54
80853;BME280;70270;43.434;28.338;2023-12-04T00:31:53;100711.88;;;7.52;65.50
80853;BME280;70270;43.434;28.338;2023-12-04T00:34:38;100683.06;;;7.45;65.15
80853;BME280;70270;43.434;28.338;2023-12-04T00:37:23;100697.88;;;7.41;65.89
80853;BME280;70270;43.434;28.338;2023-12-04T00:40:08;100489.09;;;5.88;66.07
80853;BME280;70270;43.434;28.338;2023-12-04T00:42:53;100720.88;;;7.11;67.01
80853;BME280;70270;43.434;28.338;2023-12-04T00:45:38;100717.84;;;7.14;67.04
80853;BME280;70270;43.434;28.338;2023-12-04T00:48:23;100740.59;;;7.12;66.28
80853;BME280;70270;43.434;28.338;2023-12-04T00:51:08;100760.66;;;7.17;66.36
80853;BME280;70270;43.434;28.338;2023-12-04T00:53:53;100765.09;;;6.92;66.98
80853;BME280;70270;43.434;28.338;2023-12-04T00:56:38;100775.00;;;6.84;67.89
80853;BME280;70270;43.434;28.338;2023-12-04T00:59:26;100782.34;;;6.74;68.00
80853;BME280;70270;43.434;28.338;2023-12-04T01:02:11;100715.38;;;6.45;67.56
80853;BME280;70270;43.434;28.338;2023-12-04T01:04:55;100778.25;;;6.95;67.77
80853;BME280;70270;43.434;28.338;2023-12-04T01:07:40;100791.22;;;7.00;67.03
80853;BME280;70270;43.434;28.338;2023-12-04T01:10:24;100779.00;;;6.80;67.50
80853;BME280;70270;43.434;28.338;2023-12-04T01:13:09;100731.25;;;6.90;67.23
80853;BME280;70270;43.434;28.338;2023-12-04T01:15:53;100730.19;;;6.83;67.80
80853;BME280;70270;43.434;28.338;2023-12-04T01:18:38;100707.78;;;6.82;66.97
80853;BME280;70270;43.434;28.338;2023-12-04T01:21:23;100711.78;;;6.70;67.54
80853;BME280;70270;43.434;28.338;2023-12-04T01:24:08;100750.19;;;7.14;67.64
80853;BME280;70270;43.434;28.338;2023-12-04T01:26:52;100699.38;;;6.77;67.42
80853;BME280;70270;43.434;28.338;2023-12-04T01:29:36;100652.47;;;6.54;67.44
80853;BME280;70270;43.434;28.338;2023-12-04T01:32:21;100646.31;;;6.62;67.11
80853;BME280;70270;43.434;28.338;2023-12-04T01:35:06;100753.63;;;7.32;66.34
80853;BME280;70270;43.434;28.338;2023-12-04T01:37:51;100775.00;;;7.26;66.77
80853;BME280;70270;43.434;28.338;2023-12-04T01:40:36;100686.53;;;6.63;66.68
80853;BME280;70270;43.434;28.338;2023-12-04T01:43:20;100693.84;;;6.87;66.34
80853;BME280;70270;43.434;28.338;2023-12-04T01:46:06;100774.34;;;7.32;66.79
80853;BME280;70270;43.434;28.338;2023-12-04T01:48:51;100783.78;;;7.36;66.45
80853;BME280;70270;43.434;28.338;2023-12-04T01:51:36;100651.28;;;6.48;66.31
80853;BME280;70270;43.434;28.338;2023-12-04T01:54:21;100777.19;;;7.30;66.09
80853;BME280;70270;43.434;28.338;2023-12-04T01:57:07;100802.03;;;7.42;66.27
80853;BME280;70270;43.434;28.338;2023-12-04T01:59:52;100784.22;;;7.15;66.26
80853;BME280;70270;43.434;28.338;2023-12-04T02:02:38;100766.06;;;7.25;65.62
80853;BME280;70270;43.434;28.338;2023-12-04T02:05:24;100800.50;;;7.47;66.04
80853;BME280;70270;43.434;28.338;2023-12-04T02:08:10;100804.03;;;7.40;65.56
80853;BME280;70270;43.434;28.338;2023-12-04T02:10:55;100818.56;;;7.13;65.82
80853;BME280;70270;43.434;28.338;2023-12-04T02:13:40;100818.25;;;7.16;66.58
80853;BME280;70270;43.434;28.338;2023-12-04T02:16:27;100825.03;;;7.28;65.45
80853;BME280;70270;43.434;28.338;2023-12-04T02:19:12;100827.00;;;7.18;65.45
80853;BME280;70270;43.434;28.338;2023-12-04T02:21:57;100714.25;;;6.55;66.07
80853;BME280;70270;43.434;28.338;2023-12-04T02:24:41;100801.59;;;6.87;66.25
80853;BME280;70270;43.434;28.338;2023-12-04T02:27:36;100813.75;;;6.91;66.51
80853;BME280;70270;43.434;28.338;2023-12-04T02:30:23;100815.84;;;7.05;65.75
80853;BME280;70270;43.434;28.338;2023-12-04T02:33:11;100821.06;;;7.06;66.16
80853;BME280;70270;43.434;28.338;2023-12-04T02:35:57;100813.44;;;6.94;65.60
80853;BME280;70270;43.434;28.338;2023-12-04T02:38:43;100817.00;;;7.02;66.57
80853;BME280;70270;43.434;28.338;2023-12-04T02:41:28;100821.94;;;7.15;65.68
80853;BME280;70270;43.434;28.338;2023-12-04T02:44:13;100810.13;;;7.08;65.77
80853;BME280;70270;43.434;28.338;2023-12-04T02:46:57;100814.25;;;6.94;65.84
80853;BME280;70270;43.434;28.338;2023-12-04T02:49:42;100821.81;;;6.91;66.79
80853;BME280;70270;43.434;28.338;2023-12-04T02:52:26;100831.06;;;6.88;66.84
80853;BME280;70270;43.434;28.338;2023-12-04T02:55:11;100849.78;;;6.90;66.57
80853;BME280;70270;43.434;28.338;2023-12-04T02:57:55;100856.59;;;7.02;66.55
80853;BME280;70270;43.434;28.338;2023-12-04T03:00:40;100841.81;;;6.80;66.69
80853;BME280;70270;43.434;28.338;2023-12-04T03:03:24;100789.91;;;6.44;66.32
80853;BME280;70270;43.434;28.338;2023-12-04T03:06:09;100881.31;;;6.97;66.11
80853;BME280;70270;43.434;28.338;2023-12-04T03:08:54;100851.25;;;6.84;66.13
80853;BME280;70270;43.434;28.338;2023-12-04T03:11:39;100783.03;;;6.24;65.81
80853;BME280;70270;43.434;28.338;2023-12-04T03:14:24;100884.84;;;6.98;66.56
80853;BME280;70270;43.434;28.338;2023-12-04T03:17:09;100891.34;;;6.87;66.31
80853;BME280;70270;43.434;28.338;2023-12-04T03:19:54;100861.72;;;6.62;66.49
80853;BME280;70270;43.434;28.338;2023-12-04T03:22:39;100892.00;;;6.64;66.76
80853;BME280;70270;43.434;28.338;2023-12-04T03:25:23;100899.81;;;6.75;67.29
80853;BME280;70270;43.434;28.338;2023-12-04T03:28:08;100823.31;;;5.81;67.34
80853;BME280;70270;43.434;28.338;2023-12-04T03:30:53;100803.97;;;5.95;67.70
80853;BME280;70270;43.434;28.338;2023-12-04T03:33:38;100914.47;;;6.54;67.90
80853;BME280;70270;43.434;28.338;2023-12-04T03:36:23;100779.50;;;5.71;67.78
80853;BME280;70270;43.434;28.338;2023-12-04T03:39:08;100895.69;;;6.63;67.91
80853;BME280;70270;43.434;28.338;2023-12-04T03:41:53;100899.69;;;6.58;67.71
80853;BME280;70270;43.434;28.338;2023-12-04T03:44:38;100890.03;;;6.66;67.31
80853;BME280;70270;43.434;28.338;2023-12-04T03:47:23;100851.88;;;6.52;67.02
80853;BME280;70270;43.434;28.338;2023-12-04T03:50:08;100880.84;;;6.76;66.93
80853;BME280;70270;43.434;28.338;2023-12-04T03:52:53;100879.66;;;6.79;67.03
80853;BME280;70270;43.434;28.338;2023-12-04T03:55:37;100876.50;;;6.83;66.69
80853;BME280;70270;43.434;28.338;2023-12-04T03:58:22;100907.69;;;6.86;67.73
80853;BME280;70270;43.434;28.338;2023-12-04T04:01:07;100833.94;;;6.61;66.43
80853;BME280;70270;43.434;28.338;2023-12-04T04:03:51;100901.53;;;7.01;66.59
80853;BME280;70270;43.434;28.338;2023-12-04T04:06:36;100822.59;;;6.49;66.52
80853;BME280;70270;43.434;28.338;2023-12-04T04:09:22;100879.47;;;6.98;67.33
80853;BME280;70270;43.434;28.338;2023-12-04T04:12:07;100921.50;;;7.17;66.87
80853;BME280;70270;43.434;28.338;2023-12-04T04:14:52;100922.03;;;7.20;67.31
80853;BME280;70270;43.434;28.338;2023-12-04T04:17:37;100882.88;;;7.08;67.08
80853;BME280;70270;43.434;28.338;2023-12-04T04:20:21;100928.09;;;7.22;67.08
80853;BME280;70270;43.434;28.338;2023-12-04T04:23:06;100904.50;;;7.16;67.11
80853;BME280;70270;43.434;28.338;2023-12-04T04:25:50;100930.84;;;7.30;67.10
80853;BME280;70270;43.434;28.338;2023-12-04T04:28:35;100940.66;;;7.39;66.74
80853;BME280;70270;43.434;28.338;2023-12-04T04:31:20;100938.97;;;7.38;66.21
80853;BME280;70270;43.434;28.338;2023-12-04T04:34:04;100918.38;;;7.29;66.56
80853;BME280;70270;43.434;28.338;2023-12-04T04:36:49;100943.38;;;7.39;66.49
80853;BME280;70270;43.434;28.338;2023-12-04T04:39:33;100917.25;;;7.14;67.02
80853;BME280;70270;43.434;28.338;2023-12-04T04:42:19;100903.59;;;7.07;66.47
80853;BME280;70270;43.434;28.338;2023-12-04T04:45:05;100944.53;;;7.37;66.46
80853;BME280;70270;43.434;28.338;2023-12-04T04:47:49;100939.47;;;7.34;66.66
80853;BME280;70270;43.434;28.338;2023-12-04T04:50:33;100936.59;;;7.35;67.08
80853;BME280;70270;43.434;28.338;2023-12-04T04:53:18;100827.16;;;6.83;66.74
80853;BME280;70270;43.434;28.338;2023-12-04T04:56:03;100925.72;;;7.45;66.93
80853;BME280;70270;43.434;28.338;2023-12-04T04:58:48;100950.97;;;7.44;67.24
80853;BME280;70270;43.434;28.338;2023-12-04T05:01:42;100809.34;;;6.82;68.24
80853;BME280;70270;43.434;28.338;2023-12-04T05:05:03;100956.75;;;7.91;68.56
80853;BME280;70270;43.434;28.338;2023-12-04T05:07:51;100942.78;;;8.04;67.71
80853;BME280;70270;43.434;28.338;2023-12-04T05:10:39;100903.13;;;7.88;66.87
80853;BME280;70270;43.434;28.338;2023-12-04T05:13:24;100958.59;;;8.32;66.03
80853;BME280;70270;43.434;28.338;2023-12-04T05:16:14;100853.53;;;7.89;65.61
80853;BME280;70270;43.434;28.338;2023-12-04T05:18:59;100968.44;;;8.66;65.90
80853;BME280;70270;43.434;28.338;2023-12-04T05:21:43;100953.56;;;9.02;66.63
80853;BME280;70270;43.434;28.338;2023-12-04T05:24:28;100960.97;;;9.24;64.25
80853;BME280;70270;43.434;28.338;2023-12-04T05:27:13;100968.66;;;9.52;64.78
80853;BME280;70270;43.434;28.338;2023-12-04T05:30:02;100973.88;;;9.69;62.20
80853;BME280;70270;43.434;28.338;2023-12-04T05:32:47;100960.34;;;9.69;65.58
80853;BME280;70270;43.434;28.338;2023-12-04T05:35:32;100847.63;;;9.54;63.23
80853;BME280;70270;43.434;28.338;2023-12-04T05:38:27;100953.78;;;10.33;60.86
80853;BME280;70270;43.434;28.338;2023-12-04T05:41:12;100952.47;;;10.29;61.19
80853;BME280;70270;43.434;28.338;2023-12-04T05:43:57;100958.75;;;10.53;61.72
80853;BME280;70270;43.434;28.338;2023-12-04T05:46:42;100967.28;;;10.64;60.56
80853;BME280;70270;43.434;28.338;2023-12-04T05:49:27;100962.75;;;11.02;59.73
80853;BME280;70270;43.434;28.338;2023-12-04T05:52:13;100879.00;;;10.70;57.60
80853;BME280;70270;43.434;28.338;2023-12-04T05:54:58;100972.16;;;11.44;58.54
80853;BME280;70270;43.434;28.338;2023-12-04T05:57:44;100975.81;;;11.21;56.08
80853;BME280;70270;43.434;28.338;2023-12-04T06:00:32;100982.78;;;11.16;55.61
80853;BME280;70270;43.434;28.338;2023-12-04T06:03:16;100983.06;;;10.84;55.93
80853;BME280;70270;43.434;28.338;2023-12-04T06:06:01;100982.59;;;10.35;57.21
80853;BME280;70270;43.434;28.338;2023-12-04T06:08:46;100988.31;;;9.93;58.60
80853;BME280;70270;43.434;28.338;2023-12-04T06:11:31;100996.72;;;9.67;59.42
80853;BME280;70270;43.434;28.338;2023-12-04T06:14:15;100991.41;;;9.10;59.67
80853;BME280;70270;43.434;28.338;2023-12-04T06:17:00;100991.72;;;8.91;60.57
80853;BME280;70270;43.434;28.338;2023-12-04T06:19:47;100995.28;;;8.83;61.28
80853;BME280;70270;43.434;28.338;2023-12-04T06:22:32;100968.09;;;8.69;61.28
80853;BME280;70270;43.434;28.338;2023-12-04T06:25:17;100989.53;;;8.54;61.92
80853;BME280;70270;43.434;28.338;2023-12-04T06:28:02;100993.91;;;8.05;62.44
80853;BME280;70270;43.434;28.338;2023-12-04T06:30:47;100922.22;;;7.52;63.12
80853;BME280;70270;43.434;28.338;2023-12-04T06:33:32;101032.06;;;8.10;63.12
80853;BME280;70270;43.434;28.338;2023-12-04T06:36:17;101015.50;;;8.05;63.28
80853;BME280;70270;43.434;28.338;2023-12-04T06:39:02;101017.00;;;7.99;63.68
80853;BME280;70270;43.434;28.338;2023-12-04T06:41:48;101020.13;;;7.87;63.78
80853;BME280;70270;43.434;28.338;2023-12-04T06:44:33;101014.31;;;7.66;64.41
80853;BME280;70270;43.434;28.338;2023-12-04T06:47:22;101021.38;;;7.67;65.06
80853;BME280;70270;43.434;28.338;2023-12-04T06:50:08;100901.59;;;7.10;64.83
80853;BME280;70270;43.434;28.338;2023-12-04T06:52:52;101027.00;;;7.73;64.74
80853;BME280;70270;43.434;28.338;2023-12-04T06:55:37;101046.44;;;7.85;65.07
80853;BME280;70270;43.434;28.338;2023-12-04T06:58:24;100988.09;;;7.50;64.57
80853;BME280;70270;43.434;28.338;2023-12-04T07:01:09;101041.53;;;7.80;64.80
80853;BME280;70270;43.434;28.338;2023-12-04T07:03:53;101042.34;;;7.73;65.13
80853;BME280;70270;43.434;28.338;2023-12-04T07:06:39;101055.38;;;7.85;64.96
80853;BME280;70270;43.434;28.338;2023-12-04T07:09:23;101059.50;;;7.72;64.85
80853;BME280;70270;43.434;28.338;2023-12-04T07:12:08;101056.50;;;7.75;65.03
80853;BME280;70270;43.434;28.338;2023-12-04T07:14:52;100978.31;;;7.23;65.04
80853;BME280;70270;43.434;28.338;2023-12-04T07:17:37;101026.00;;;7.48;65.22
80853;BME280;70270;43.434;28.338;2023-12-04T07:20:21;101074.38;;;7.76;64.75
80853;BME280;70270;43.434;28.338;2023-12-04T07:23:08;101059.25;;;7.57;65.16
80853;BME280;70270;43.434;28.338;2023-12-04T07:25:53;101002.41;;;7.25;64.99
80853;BME280;70270;43.434;28.338;2023-12-04T07:28:38;100990.72;;;7.16;65.34
80853;BME280;70270;43.434;28.338;2023-12-04T07:31:22;101090.09;;;7.80;65.14
80853;BME280;70270;43.434;28.338;2023-12-04T07:34:07;100967.94;;;7.11;64.15
80853;BME280;70270;43.434;28.338;2023-12-04T07:36:51;101087.41;;;7.80;64.13
80853;BME280;70270;43.434;28.338;2023-12-04T07:39:35;101078.41;;;7.97;63.28
80853;BME280;70270;43.434;28.338;2023-12-04T07:42:20;101083.28;;;7.94;63.97
80853;BME280;70270;43.434;28.338;2023-12-04T07:45:05;101083.13;;;7.70;64.37
80853;BME280;70270;43.434;28.338;2023-12-04T07:47:50;101072.94;;;7.64;64.05
80853;BME280;70270;43.434;28.338;2023-12-04T07:50:35;101086.22;;;7.83;63.94
80853;BME280;70270;43.434;28.338;2023-12-04T07:53:19;101082.53;;;7.84;63.87
80853;BME280;70270;43.434;28.338;2023-12-04T07:56:04;101086.88;;;7.77;64.01
80853;BME280;70270;43.434;28.338;2023-12-04T07:58:48;101094.91;;;7.69;63.38
80853;BME280;70270;43.434;28.338;2023-12-04T08:01:33;100977.97;;;7.00;63.46
80853;BME280;70270;43.434;28.338;2023-12-04T08:04:18;101097.00;;;7.83;63.50
80853;BME280;70270;43.434;28.338;2023-12-04T08:07:03;101003.88;;;7.19;63.61
80853;BME280;70270;43.434;28.338;2023-12-04T08:09:48;101034.22;;;7.47;63.38
80853;BME280;70270;43.434;28.338;2023-12-04T08:12:32;100995.06;;;7.09;62.81
80853;BME280;70270;43.434;28.338;2023-12-04T08:15:18;101083.16;;;7.78;62.97
80853;BME280;70270;43.434;28.338;2023-12-04T08:18:02;101094.50;;;7.81;62.90
80853;BME280;70270;43.434;28.338;2023-12-04T08:20:46;101101.09;;;7.87;62.91
80853;BME280;70270;43.434;28.338;2023-12-04T08:23:31;101096.72;;;7.86;62.84
80853;BME280;70270;43.434;28.338;2023-12-04T08:26:25;101103.06;;;7.77;63.06
80853;BME280;70270;43.434;28.338;2023-12-04T08:29:09;101109.81;;;7.81;62.78
80853;BME280;70270;43.434;28.338;2023-12-04T08:31:54;101027.06;;;7.30;62.85
80853;BME280;70270;43.434;28.338;2023-12-04T08:34:38;101105.22;;;7.73;62.54
80853;BME280;70270;43.434;28.338;2023-12-04T08:37:23;101114.97;;;7.66;62.54
80853;BME280;70270;43.434;28.338;2023-12-04T08:40:08;101108.53;;;7.67;62.87
80853;BME280;70270;43.434;28.338;2023-12-04T08:42:52;101111.03;;;7.61;63.07
80853;BME280;70270;43.434;28.338;2023-12-04T08:45:37;100891.56;;;6.50;62.05
80853;BME280;70270;43.434;28.338;2023-12-04T08:48:22;101107.13;;;7.81;62.31
80853;BME280;70270;43.434;28.338;2023-12-04T08:51:07;101113.00;;;7.76;62.10
80853;BME280;70270;43.434;28.338;2023-12-04T08:53:55;101100.03;;;7.54;62.23
80853;BME280;70270;43.434;28.338;2023-12-04T08:56:40;101118.47;;;7.67;62.67
80853;BME280;70270;43.434;28.338;2023-12-04T08:59:26;101118.38;;;7.76;62.54
80853;BME280;70270;43.434;28.338;2023-12-04T09:02:10;101106.94;;;7.82;62.02
80853;BME280;70270;43.434;28.338;2023-12-04T09:04:54;101076.66;;;7.63;62.03
80853;BME280;70270;43.434;28.338;2023-12-04T09:07:39;101109.31;;;7.77;62.22
80853;BME280;70270;43.434;28.338;2023-12-04T09:10:23;101039.47;;;7.48;62.20
80853;BME280;70270;43.434;28.338;2023-12-04T09:13:08;101110.44;;;7.49;62.63
80853;BME280;70270;43.434;28.338;2023-12-04T09:15:53;101077.16;;;7.58;62.17
80853;BME280;70270;43.434;28.338;2023-12-04T09:18:43;101100.91;;;7.63;61.84
80853;BME280;70270;43.434;28.338;2023-12-04T09:21:28;101040.63;;;7.20;62.13
80853;BME280;70270;43.434;28.338;2023-12-04T09:24:12;101094.66;;;7.36;62.63
80853;BME280;70270;43.434;28.338;2023-12-04T09:26:57;101100.19;;;7.52;62.84
80853;BME280;70270;43.434;28.338;2023-12-04T09:29:42;101089.84;;;7.66;62.83
80853;BME280;70270;43.434;28.338;2023-12-04T09:32:27;101080.72;;;7.67;62.42
80853;BME280;70270;43.434;28.338;2023-12-04T09:35:12;101082.53;;;7.84;62.48
80853;BME280;70270;43.434;28.338;2023-12-04T09:37:56;101094.16;;;7.84;62.06
80853;BME280;70270;43.434;28.338;2023-12-04T09:40:41;101098.59;;;7.93;62.09
80853;BME280;70270;43.434;28.338;2023-12-04T09:43:31;100932.81;;;7.20;61.79
80853;BME280;70270;43.434;28.338;2023-12-04T09:46:16;101092.81;;;8.14;61.30
80853;BME280;70270;43.434;28.338;2023-12-04T09:49:02;101082.97;;;8.05;61.14
80853;BME280;70270;43.434;28.338;2023-12-04T09:51:47;101085.25;;;7.92;60.67
80853;BME280;70270;43.434;28.338;2023-12-04T09:54:34;101099.75;;;7.91;61.27
80853;BME280;70270;43.434;28.338;2023-12-04T09:57:21;101024.78;;;7.69;61.51
80853;BME280;70270;43.434;28.338;2023-12-04T10:00:08;101089.34;;;7.96;60.71
80853;BME280;70270;43.434;28.338;2023-12-04T10:02:57;101093.47;;;7.82;61.39
80853;BME280;70270;43.434;28.338;2023-12-04T10:05:43;101089.66;;;7.93;60.92
80853;BME280;70270;43.434;28.338;2023-12-04T10:08:38;101103.47;;;7.90;61.31
80853;BME280;70270;43.434;28.338;2023-12-04T10:11:22;100983.69;;;7.23;60.68
80853;BME280;70270;43.434;28.338;2023-12-04T10:14:14;101093.13;;;7.77;60.68
80853;BME280;70270;43.434;28.338;2023-12-04T10:17:14;101092.72;;;7.72;61.52
80853;BME280;70270;43.434;28.338;2023-12-04T10:20:18;101090.09;;;7.80;61.33
80853;BME280;70270;43.434;28.338;2023-12-04T10:23:04;101087.41;;;7.80;60.57
80853;BME280;70270;43.434;28.338;2023-12-04T10:25:49;101013.94;;;7.35;60.65
80853;BME280;70270;43.434;28.338;2023-12-04T10:28:35;101083.38;;;7.84;60.46
80853;BME280;70270;43.434;28.338;2023-12-04T10:31:20;101018.19;;;7.37;59.94
80853;BME280;70270;43.434;28.338;2023-12-04T10:34:08;100960.94;;;7.18;60.24
80853;BME280;70270;43.434;28.338;2023-12-04T10:36:55;101076.38;;;7.99;60.26
80853;BME280;70270;43.434;28.338;2023-12-04T10:39:48;101094.25;;;8.00;60.40
80853;BME280;70270;43.434;28.338;2023-12-04T10:42:33;100780.06;;;6.09;60.69
80853;BME280;70270;43.434;28.338;2023-12-04T10:45:18;101087.91;;;7.84;60.19
80853;BME280;70270;43.434;28.338;2023-12-04T10:48:07;101109.19;;;7.87;61.29
80853;BME280;70270;43.434;28.338;2023-12-04T10:50:52;101092.47;;;7.83;61.08
80853;BME280;70270;43.434;28.338;2023-12-04T10:53:37;101085.03;;;7.77;60.39
80853;BME280;70270;43.434;28.338;2023-12-04T10:56:36;101103.88;;;8.03;60.89
80853;BME280;70270;43.434;28.338;2023-12-04T10:59:27;101064.34;;;7.86;61.57
80853;BME280;70270;43.434;28.338;2023-12-04T11:02:16;101094.16;;;8.10;61.09
80853;BME280;70270;43.434;28.338;2023-12-04T11:05:13;100968.28;;;7.33;60.70
80853;BME280;70270;43.434;28.338;2023-12-04T11:08:06;101090.94;;;8.15;61.16
80853;BME280;70270;43.434;28.338;2023-12-04T11:11:08;101091.91;;;8.31;60.76
80853;BME280;70270;43.434;28.338;2023-12-04T11:13:56;101107.53;;;8.28;60.59
80853;BME280;70270;43.434;28.338;2023-12-04T11:16:49;101103.75;;;8.38;60.56
80853;BME280;70270;43.434;28.338;2023-12-04T11:19:55;101098.69;;;8.43;60.42
80853;BME280;70270;43.434;28.338;2023-12-04T11:22:41;101084.56;;;8.50;60.29
80853;BME280;70270;43.434;28.338;2023-12-04T11:25:27;101054.84;;;8.50;59.48
80853;BME280;70270;43.434;28.338;2023-12-04T11:28:13;101084.44;;;8.75;58.65
80853;BME280;70270;43.434;28.338;2023-12-04T11:31:00;101081.91;;;8.74;58.35
80853;BME280;70270;43.434;28.338;2023-12-04T11:33:45;101086.03;;;8.94;58.17
80853;BME280;70270;43.434;28.338;2023-12-04T11:36:30;101047.13;;;8.79;57.99
80853;BME280;70270;43.434;28.338;2023-12-04T11:39:14;100985.78;;;8.55;57.19
80853;BME280;70270;43.434;28.338;2023-12-04T11:41:59;101076.03;;;9.19;57.11
80853;BME280;70270;43.434;28.338;2023-12-04T11:44:44;101075.72;;;9.14;56.66
80853;BME280;70270;43.434;28.338;2023-12-04T11:47:28;101084.00;;;9.04;56.13
80853;BME280;70270;43.434;28.338;2023-12-04T11:50:17;101081.97;;;9.06;55.95
80853;BME280;70270;43.434;28.338;2023-12-04T11:53:03;101082.00;;;9.14;55.75
80853;BME280;70270;43.434;28.338;2023-12-04T11:55:47;100962.72;;;8.19;55.66
80853;BME280;70270;43.434;28.338;2023-12-04T11:58:32;101073.50;;;9.01;56.05
80853;BME280;70270;43.434;28.338;2023-12-04T12:01:23;101065.25;;;8.95;54.97
80853;BME280;70270;43.434;28.338;2023-12-04T12:04:09;101030.91;;;8.71;55.73
80853;BME280;70270;43.434;28.338;2023-12-04T12:06:54;101076.88;;;9.03;55.59
80853;BME280;70270;43.434;28.338;2023-12-04T12:09:38;100959.94;;;8.36;55.47
80853;BME280;70270;43.434;28.338;2023-12-04T12:12:25;101078.09;;;9.09;55.51
80853;BME280;70270;43.434;28.338;2023-12-04T12:15:11;101095.31;;;9.00;55.63
80853;BME280;70270;43.434;28.338;2023-12-04T12:17:55;101078.91;;;8.85;55.87
80853;BME280;70270;43.434;28.338;2023-12-04T12:20:40;101087.69;;;8.95;55.87
80853;BME280;70270;43.434;28.338;2023-12-04T12:23:25;101068.94;;;8.93;55.88
80853;BME280;70270;43.434;28.338;2023-12-04T12:26:10;101075.00;;;8.79;56.18
80853;BME280;70270;43.434;28.338;2023-12-04T12:28:55;101084.28;;;8.69;56.13
80853;BME280;70270;43.434;28.338;2023-12-04T12:31:40;101074.50;;;8.84;56.00
80853;BME280;70270;43.434;28.338;2023-12-04T12:34:24;101086.81;;;8.70;56.21
80853;BME280;70270;43.434;28.338;2023-12-04T12:37:11;101061.66;;;8.28;56.85
80853;BME280;70270;43.434;28.338;2023-12-04T12:39:57;101100.41;;;8.44;56.54
80853;BME280;70270;43.434;28.338;2023-12-04T12:42:42;101104.47;;;8.49;56.58
80853;BME280;70270;43.434;28.338;2023-12-04T12:45:26;100993.81;;;7.81;56.55
80853;BME280;70270;43.434;28.338;2023-12-04T12:48:15;100981.69;;;7.85;56.23
80853;BME280;70270;43.434;28.338;2023-12-04T12:50:59;101067.88;;;8.20;57.43
80853;BME280;70270;43.434;28.338;2023-12-04T12:53:47;101099.41;;;8.45;57.14
80853;BME280;70270;43.434;28.338;2023-12-04T12:56:32;101106.81;;;8.52;56.92
80853;BME280;70270;43.434;28.338;2023-12-04T12:59:16;101118.28;;;8.37;57.06
80853;BME280;70270;43.434;28.338;2023-12-04T13:02:04;101084.81;;;8.30;56.52
80853;BME280;70270;43.434;28.338;2023-12-04T13:04:50;101084.25;;;8.27;57.00
80853;BME280;70270;43.434;28.338;2023-12-04T13:07:35;101105.16;;;8.59;56.88
80853;BME280;70270;43.434;28.338;2023-12-04T13:10:19;101004.31;;;7.92;56.62
80853;BME280;70270;43.434;28.338;2023-12-04T13:13:04;101047.28;;;8.27;56.27
80853;BME280;70270;43.434;28.338;2023-12-04T13:15:53;101109.53;;;8.52;55.57
80853;BME280;70270;43.434;28.338;2023-12-04T13:18:38;101120.00;;;8.55;55.90
80853;BME280;70270;43.434;28.338;2023-12-04T13:21:23;101123.06;;;8.60;56.11
80853;BME280;70270;43.434;28.338;2023-12-04T13:24:07;101134.06;;;8.58;55.90
80853;BME280;70270;43.434;28.338;2023-12-04T13:26:53;101118.44;;;8.44;56.05
80853;BME280;70270;43.434;28.338;2023-12-04T13:29:37;101132.84;;;8.53;55.96
80853;BME280;70270;43.434;28.338;2023-12-04T13:32:22;101128.81;;;8.57;56.16
80853;BME280;70270;43.434;28.338;2023-12-04T13:35:06;101145.00;;;8.57;56.38
80853;BME280;70270;43.434;28.338;2023-12-04T13:37:55;101134.72;;;8.60;56.52
80853;BME280;70270;43.434;28.338;2023-12-04T13:40:41;101090.22;;;8.30;56.08
80853;BME280;70270;43.434;28.338;2023-12-04T13:43:28;101136.59;;;8.68;56.11
80853;BME280;70270;43.434;28.338;2023-12-04T13:46:32;101112.56;;;8.49;56.39
80853;BME280;70270;43.434;28.338;2023-12-04T13:49:16;101140.97;;;8.61;56.38
80853;BME280;70270;43.434;28.338;2023-12-04T13:52:04;101131.47;;;8.49;56.44
80853;BME280;70270;43.434;28.338;2023-12-04T13:54:51;101140.25;;;8.51;55.79
80853;BME280;70270;43.434;28.338;2023-12-04T13:57:38;101137.56;;;8.59;55.03
80853;BME280;70270;43.434;28.338;2023-12-04T14:00:40;101135.25;;;8.64;55.34
80853;BME280;70270;43.434;28.338;2023-12-04T14:03:25;101135.88;;;8.50;55.24
80853;BME280;70270;43.434;28.338;2023-12-04T14:06:10;101139.94;;;8.54;54.76
80853;BME280;70270;43.434;28.338;2023-12-04T14:08:56;101143.97;;;8.50;54.80
80853;BME280;70270;43.434;28.338;2023-12-04T14:11:42;101138.53;;;8.41;55.01
80853;BME280;70270;43.434;28.338;2023-12-04T14:14:28;101116.06;;;8.33;55.16
80853;BME280;70270;43.434;28.338;2023-12-04T14:17:13;101144.94;;;8.40;54.76
80853;BME280;70270;43.434;28.338;2023-12-04T14:19:58;101050.03;;;7.93;55.35
80853;BME280;70270;43.434;28.338;2023-12-04T14:22:43;101142.59;;;8.45;54.67
80853;BME280;70270;43.434;28.338;2023-12-04T14:25:28;101147.53;;;8.50;54.33
80853;BME280;70270;43.434;28.338;2023-12-04T14:28:12;101145.91;;;8.31;54.25
80853;BME280;70270;43.434;28.338;2023-12-04T14:30:57;101070.03;;;7.83;54.48